Time;durP1;ratioP1;P1;durP2;ratioP2;P2;SDS_P1;SDS_P2;PMS_P1;PMS_P2;Temp;Humidity;BMP_temperature;BMP_pressure;BME280_temperature;BME280_humidity;BME280_pressure;Samples;Min_cycle;Max_cycle;Signal;HPM_P1;HPM_P2
2022/07/25 00:00:06;;;;;;;5.72;4.68;;;24.00;96.10;;;;;;5115135;28;20055;-75
2022/07/25 00:02:31;;;;;;;7.93;5.18;;;24.60;96.00;;;;;;5115407;28;20039;-75
2022/07/25 00:04:57;;;;;;;8.45;5.43;;;23.90;92.40;;;;;;5098449;28;20486;-75
2022/07/25 00:07:23;;;;;;;17.13;5.47;;;23.90;92.50;;;;;;5098024;28;20035;-75
2022/07/25 00:09:49;;;;;;;9.02;5.57;;;23.10;95.70;;;;;;5115018;28;20048;-75
2022/07/25 00:12:14;;;;;;;6.78;5.25;;;22.90;95.60;;;;;;5081495;28;20050;-75
2022/07/25 00:14:40;;;;;;;6.30;4.60;;;22.70;95.60;;;;;;5113965;28;20124;-75
2022/07/25 00:17:06;;;;;;;8.68;5.10;;;24.50;96.20;;;;;;5114867;28;20110;-75
2022/07/25 00:19:32;;;;;;;8.32;5.80;;;;;;;;;;5114824;28;20082;-75
2022/07/25 00:21:57;;;;;;;9.50;6.20;;;24.60;96.30;;;;;;5115149;28;20112;-75
2022/07/25 00:24:23;;;;;;;8.95;5.40;;;23.60;92.60;;;;;;5098145;28;20039;-74
2022/07/25 00:26:49;;;;;;;5.93;4.55;;;24.20;96.40;;;;;;5114712;28;20083;-74
2022/07/25 00:29:14;;;;;;;6.45;4.80;;;24.60;96.60;;;;;;5114969;28;20040;-74
2022/07/25 00:31:41;;;;;;;7.63;4.35;;;;;;;;;;5097626;28;20051;-74
2022/07/25 00:34:06;;;;;;;8.35;4.38;;;24.50;96.70;;;;;;5114820;28;20130;-74
2022/07/25 00:36:32;;;;;;;7.45;4.63;;;;;;;;;;5114586;28;20559;-74
2022/07/25 00:38:58;;;;;;;7.97;4.25;;;23.10;96.70;;;;;;5097520;28;20135;-74
2022/07/25 00:41:24;;;;;;;7.88;4.30;;;;;;;;;;5080606;28;20075;-74
2022/07/25 00:43:50;;;;;;;5.97;4.70;;;23.90;96.90;;;;;;5114320;28;20040;-74
2022/07/25 00:46:16;;;;;;;9.07;4.90;;;22.50;96.50;;;;;;5114292;28;20093;-74
2022/07/25 00:48:43;;;;;;;8.57;4.72;;;24.20;95.80;;;;;;5097262;28;20042;-74
2022/07/25 00:51:09;;;;;;;5.63;4.30;;;23.50;93.50;;;;;;5114497;28;20411;-74
2022/07/25 00:53:36;;;;;;;6.90;4.60;;;23.70;93.50;;;;;;5114318;28;20051;-74
2022/07/25 00:56:03;;;;;;;8.13;4.82;;;22.90;96.80;;;;;;5114094;28;20488;-74
2022/07/25 00:58:29;;;;;;;7.32;4.65;;;23.10;96.90;;;;;;5080024;28;20048;-74
2022/07/25 01:00:55;;;;;;;5.85;4.38;;;23.40;93.70;;;;;;5114111;28;20036;-74
2022/07/25 01:03:21;;;;;;;7.70;4.68;;;23.30;93.70;;;;;;5113802;28;20050;-74
2022/07/25 01:05:49;;;;;;;8.38;4.50;;;22.10;97.00;;;;;;5113860;28;20040;-74
2022/07/25 01:08:16;;;;;;;5.15;4.20;;;22.30;97.20;;;;;;5096807;28;20036;-74
2022/07/25 01:10:43;;;;;;;5.82;4.50;;;23.80;97.60;;;;;;5113878;28;20035;-74
2022/07/25 01:13:09;;;;;;;4.95;4.10;;;23.10;94.20;;;;;;5114024;28;20023;-74
2022/07/25 01:15:35;;;;;;;6.50;4.80;;;;;;;;;;5096774;28;20449;-74
2022/07/25 01:18:01;;;;;;;6.40;4.60;;;21.80;97.50;;;;;;5113684;28;20079;-74
2022/07/25 01:20:28;;;;;;;6.97;4.45;;;22.70;94.30;;;;;;5113892;28;20071;-74
2022/07/25 01:22:54;;;;;;;6.07;3.70;;;22.90;94.70;;;;;;5096846;28;20043;-74
2022/07/25 01:25:21;;;;;;;7.38;3.80;;;23.00;94.70;;;;;;5096627;28;20035;-74
2022/07/25 01:27:48;;;;;;;5.32;4.03;;;23.80;96.30;;;;;;5113396;28;20040;-74
2022/07/25 01:30:14;;;;;;;12.18;4.93;;;21.90;98.10;;;;;;5113488;28;20130;-74
2022/07/25 01:32:41;;;;;;;9.35;5.07;;;22.50;98.60;;;;;;5113481;28;20047;-74
2022/07/25 01:35:08;;;;;;;5.88;4.80;;;22.60;95.20;;;;;;5113385;28;20047;-74
2022/07/25 01:37:34;;;;;;;7.35;5.10;;;22.60;95.10;;;;;;5113336;28;20044;-74
2022/07/25 01:40:01;;;;;;;5.55;4.80;;;23.00;98.70;;;;;;5113207;28;20071;-74
2022/07/25 01:42:27;;;;;;;15.60;5.15;;;21.60;98.50;;;;;;5113372;28;20123;-74
2022/07/25 01:44:53;;;;;;;6.65;5.60;;;23.20;98.90;;;;;;5097201;28;20375;-74
2022/07/25 01:47:19;;;;;;;12.82;6.40;;;22.40;95.50;;;;;;5113315;28;20050;-74
2022/07/25 01:49:44;;;;;;;9.98;6.85;;;22.20;95.40;;;;;;5096156;28;20039;-74
2022/07/25 01:52:11;;;;;;;10.07;6.05;;;22.20;94.70;;;;;;5096283;28;20040;-74
2022/07/25 01:54:37;;;;;;;9.20;6.00;;;22.20;95.60;;;;;;5096115;28;20415;-74
2022/07/25 01:57:03;;;;;;;8.30;6.00;;;;;;;;;;5112754;28;20071;-74
2022/07/25 01:59:29;;;;;;;8.60;6.20;;;22.80;99.30;;;;;;5095912;28;20043;-74
2022/07/25 02:01:55;;;;;;;8.25;6.57;;;21.10;98.80;;;;;;5112886;28;20050;-74
2022/07/25 02:04:21;;;;;;;7.13;6.10;;;;;;;;;;5096078;28;20043;-74
2022/07/25 02:06:47;;;;;;;9.25;6.13;;;23.00;99.30;;;;;;5096225;28;20516;-74
2022/07/25 02:09:13;;;;;;;7.75;6.45;;;23.00;99.40;;;;;;5112758;28;20071;-74
2022/07/25 02:11:39;;;;;;;10.68;6.13;;;22.70;99.30;;;;;;5112882;28;20510;-74
2022/07/25 02:14:05;;;;;;;8.27;6.50;;;;;;;;;;5095764;28;20035;-74
2022/07/25 02:16:31;;;;;;;9.88;6.47;;;22.10;94.60;;;;;;5095686;28;20042;-74
2022/07/25 02:18:57;;;;;;;9.73;6.80;;;22.10;99.50;;;;;;5112737;28;20122;-74
2022/07/25 02:21:22;;;;;;;8.55;7.10;;;20.80;99.10;;;;;;5112697;28;20480;-74
2022/07/25 02:23:48;;;;;;;13.02;7.45;;;22.80;99.60;;;;;;5112722;28;20043;-74
2022/07/25 02:26:14;;;;;;;11.30;7.85;;;;;;;;;;5095751;28;20046;-74
2022/07/25 02:28:40;;;;;;;10.10;7.75;;;22.10;94.80;;;;;;5112616;28;20044;-74
2022/07/25 02:31:06;;;;;;;10.90;7.55;;;;;;;;;;5112877;28;20122;-74
2022/07/25 02:33:32;;;;;;;13.65;7.90;;;22.10;94.90;;;;;;5095683;28;20040;-75
2022/07/25 02:35:58;;;;;;;9.30;7.75;;;20.90;99.40;;;;;;5112873;28;20040;-74
2022/07/25 02:38:23;;;;;;;10.77;8.52;;;22.90;99.90;;;;;;5113745;28;20083;-74
2022/07/25 02:40:51;;;;;;;10.05;7.97;;;22.00;96.40;;;;;;5116832;28;20168;-74
2022/07/25 02:43:18;;;;;;;10.38;8.20;;;22.40;99.90;;;;;;5117057;28;20075;-74
2022/07/25 02:45:44;;;;;;;11.48;8.02;;;22.90;99.90;;;;;;5099663;28;20040;-74
2022/07/25 02:48:10;;;;;;;11.32;8.30;;;21.10;99.90;;;;;;5116790;28;20035;-74
2022/07/25 02:50:36;;;;;;;10.50;8.98;;;20.80;99.90;;;;;;5116508;28;20043;-74
2022/07/25 02:53:03;;;;;;;9.02;8.05;;;21.70;97.00;;;;;;5099495;28;20061;-74
2022/07/25 02:55:30;;;;;;;13.82;9.05;;;21.60;97.10;;;;;;5099857;28;20051;-74
2022/07/25 02:57:55;;;;;;;11.73;8.82;;;22.60;99.90;;;;;;5116441;28;20051;-74
2022/07/25 03:00:22;;;;;;;10.23;9.15;;;;;;;;;;5116223;28;20426;-74
2022/07/25 03:02:47;;;;;;;13.63;8.32;;;21.90;99.90;;;;;;5116562;28;20383;-74
2022/07/25 03:05:14;;;;;;;10.73;8.32;;;21.70;96.70;;;;;;5099484;28;20043;-74
2022/07/25 03:07:41;;;;;;;14.63;8.75;;;21.50;97.30;;;;;;5116231;28;20046;-74
2022/07/25 03:10:08;;;;;;;10.63;8.52;;;22.30;99.90;;;;;;5099263;28;20476;-74
2022/07/25 03:12:35;;;;;;;19.35;9.27;;;22.50;99.90;;;;;;5116559;28;20053;-74
2022/07/25 03:15:01;;;;;;;12.18;8.23;;;20.50;99.90;;;;;;5116052;28;20372;-74
2022/07/25 03:17:27;;;;;;;11.70;8.88;;;20.40;99.90;;;;;;5115968;28;20122;-74
2022/07/25 03:19:54;;;;;;;19.67;9.70;;;20.90;99.90;;;;;;5116069;28;20104;-74
2022/07/25 03:22:20;;;;;;;10.82;8.75;;;21.40;97.50;;;;;;5099031;28;20051;-74
2022/07/25 03:24:46;;;;;;;11.95;8.82;;;22.10;99.90;;;;;;5081907;28;20474;-74
2022/07/25 03:27:12;;;;;;;12.95;8.98;;;;;;;;;;5116142;28;20043;-74
2022/07/25 03:29:38;;;;;;;11.30;8.00;;;21.90;99.90;;;;;;5099082;28;20091;-74
2022/07/25 03:32:04;;;;;;;11.52;9.15;;;20.20;99.90;;;;;;5115703;28;20529;-74
2022/07/25 03:34:29;;;;;;;10.43;8.77;;;21.20;99.90;;;;;;5115600;28;20048;-74
2022/07/25 03:36:56;;;;;;;13.10;8.63;;;;;;;;;;5115655;28;20040;-74
2022/07/25 03:39:23;;;;;;;9.60;7.90;;;21.10;99.90;;;;;;5115506;28;20487;-74
2022/07/25 03:41:51;;;;;;;9.38;7.50;;;;;;;;;;5098990;28;20043;-74
2022/07/25 03:44:18;;;;;;;10.15;7.97;;;21.60;99.90;;;;;;5115469;28;20122;-74
2022/07/25 03:46:44;;;;;;;9.57;7.55;;;;;;;;;;5098901;28;20062;-74
2022/07/25 03:49:09;;;;;;;11.82;7.88;;;20.20;99.90;;;;;;5115515;28;20091;-74
2022/07/25 03:51:35;;;;;;;10.98;7.88;;;;;;;;;;5115389;28;20451;-74
2022/07/25 03:54:01;;;;;;;8.45;6.93;;;21.40;96.50;;;;;;5098440;28;20131;-74
2022/07/25 03:56:31;;;;;;;9.73;7.57;;;21.10;99.90;;;;;;5115540;28;20122;-74
2022/07/25 03:58:57;;;;;;;14.40;7.90;;;21.80;99.90;;;;;;5115311;28;20085;-74
2022/07/25 04:01:23;;;;;;;10.43;7.40;;;21.50;99.90;;;;;;5115325;28;20064;-74
2022/07/25 04:03:48;;;;;;;11.20;7.50;;;21.10;97.80;;;;;;5115442;28;20089;-74
2022/07/25 04:06:15;;;;;;;12.18;7.05;;;;;;;;;;5115370;28;20502;-74
2022/07/25 04:08:40;;;;;;;9.52;7.22;;;22.10;99.90;;;;;;5098247;28;20050;-74
2022/07/25 04:11:06;;;;;;;9.15;6.70;;;20.60;99.90;;;;;;5115270;28;20040;-74
2022/07/25 04:13:32;;;;;;;8.80;6.85;;;;;;;;;;5098070;28;20155;-74
2022/07/25 04:15:58;;;;;;;9.18;6.78;;;;;;;;;;5114928;28;20131;-74
2022/07/25 04:18:24;;;;;;;7.63;6.28;;;21.30;98.00;;;;;;5115055;28;20054;-74
2022/07/25 04:20:49;;;;;;;10.32;7.03;;;22.30;99.90;;;;;;5114813;28;20403;-74
2022/07/25 04:23:15;;;;;;;10.80;8.05;;;;;;;;;;5114842;28;20038;-74
2022/07/25 04:25:41;;;;;;;11.18;7.15;;;22.10;99.90;;;;;;5114735;28;20048;-74
2022/07/25 04:28:07;;;;;;;7.93;6.60;;;21.20;98.20;;;;;;5114700;28;20035;-74
2022/07/25 04:30:33;;;;;;;9.55;7.20;;;;;;;;;;5097830;28;20046;-74
2022/07/25 04:32:59;;;;;;;10.60;7.50;;;;;;;;;;5097850;28;20092;-74
2022/07/25 04:35:25;;;;;;;11.25;7.15;;;21.30;98.30;;;;;;5114687;28;20356;-74
2022/07/25 04:37:51;;;;;;;10.85;7.40;;;;;;;;;;5114555;28;20036;-74
2022/07/25 04:40:16;;;;;;;12.32;7.45;;;21.50;99.90;;;;;;5114438;28;20044;-74
2022/07/25 04:42:42;;;;;;;11.77;7.15;;;20.20;99.90;;;;;;5114422;28;20047;-74
2022/07/25 04:45:08;;;;;;;9.80;7.85;;;;;;;;;;5114422;28;20043;-74
2022/07/25 04:47:34;;;;;;;10.98;8.07;;;22.40;99.90;;;;;;5114366;28;20510;-74
2022/07/25 04:50:00;;;;;;;9.50;8.27;;;;;;;;;;5097532;28;20047;-74
2022/07/25 04:52:26;;;;;;;13.27;8.35;;;21.30;98.50;;;;;;5114468;28;20043;-74
2022/07/25 04:54:52;;;;;;;13.63;7.63;;;21.40;98.60;;;;;;5114443;28;20080;-74
2022/07/25 04:57:17;;;;;;;15.40;8.13;;;20.60;99.90;;;;;;5097146;28;20487;-74
2022/07/25 04:59:43;;;;;;;10.52;7.80;;;;;;;;;;5113992;28;20047;-74
2022/07/25 05:02:10;;;;;;;12.85;8.70;;;21.50;99.90;;;;;;5096621;28;20043;-74
2022/07/25 05:04:35;;;;;;;12.98;8.55;;;22.10;99.90;;;;;;5096959;28;20122;-74
2022/07/25 05:07:01;;;;;;;12.48;8.57;;;22.00;99.90;;;;;;5113866;28;20122;-74
2022/07/25 05:09:27;;;;;;;10.70;8.80;;;22.10;99.90;;;;;;5114039;28;20062;-74
2022/07/25 05:11:53;;;;;;;13.68;8.60;;;;;;;;;;5114141;28;20432;-74
2022/07/25 05:14:19;;;;;;;11.85;8.50;;;20.80;99.90;;;;;;5096872;28;20490;-74
2022/07/25 05:16:45;;;;;;;11.68;8.75;;;;;;;;;;5097133;28;20066;-74
2022/07/25 05:19:11;;;;;;;12.75;8.15;;;21.50;98.90;;;;;;5096787;28;20425;-74
2022/07/25 05:21:37;;;;;;;11.60;8.98;;;21.50;98.80;;;;;;5096964;28;20031;-74
2022/07/25 05:24:03;;;;;;;10.63;8.52;;;21.70;99.00;;;;;;5096667;28;20376;-74
2022/07/25 05:26:29;;;;;;;12.23;8.45;;;20.80;99.90;;;;;;5113924;28;20043;-74
2022/07/25 05:28:55;;;;;;;11.02;8.57;;;;;;;;;;5096435;28;20574;-74
2022/07/25 05:31:21;;;;;;;18.90;9.98;;;20.40;99.90;;;;;;5113450;28;20422;-74
2022/07/25 05:33:47;;;;;;;14.88;9.82;;;;;;;;;;5113472;28;20035;-74
2022/07/25 05:36:13;;;;;;;15.55;9.80;;;;;;;;;;5096398;28;20104;-74
2022/07/25 05:38:39;;;;;;;12.35;9.00;;;21.40;99.90;;;;;;5113196;28;20126;-74
2022/07/25 05:41:05;;;;;;;13.68;9.50;;;;;;;;;;5096561;28;20168;-74
2022/07/25 05:43:31;;;;;;;12.90;9.23;;;22.40;99.90;;;;;;5113176;28;20426;-74
2022/07/25 05:46:04;;;;;;;12.95;9.40;;;22.10;99.90;;;;;;5079662;28;20050;-74
2022/07/25 05:48:30;;;;;;;14.82;9.55;;;21.60;99.90;;;;;;5096253;28;20118;-74
2022/07/25 05:50:57;;;;;;;14.30;10.07;;;21.90;99.10;;;;;;5096221;28;20043;-74
2022/07/25 05:53:24;;;;;;;14.98;10.18;;;22.60;99.90;;;;;;5096421;28;20048;-74
2022/07/25 05:55:50;;;;;;;20.08;10.43;;;21.80;99.00;;;;;;5113049;28;20513;-74
2022/07/25 05:58:16;;;;;;;18.73;10.70;;;;;;;;;;5095758;28;20055;-74
2022/07/25 06:00:42;;;;;;;14.85;10.63;;;22.70;99.90;;;;;;5096008;28;20048;-74
2022/07/25 06:03:07;;;;;;;16.50;11.00;;;22.20;99.90;;;;;;5113133;28;20122;-74
2022/07/25 06:05:34;;;;;;;18.42;10.85;;;;;;;;;;5112817;28;20479;-74
2022/07/25 06:08:00;;;;;;;18.25;10.07;;;21.80;99.90;;;;;;5095860;28;20494;-74
2022/07/25 06:10:26;;;;;;;20.13;11.63;;;;;;;;;;5113134;28;20052;-74
2022/07/25 06:12:52;;;;;;;15.93;11.00;;;;;;;;;;5112174;28;20206;-74
2022/07/25 06:15:18;;;;;;;17.67;11.23;;;22.10;99.90;;;;;;5112634;28;20040;-74
2022/07/25 06:17:44;;;;;;;19.10;11.88;;;;;;;;;;5096227;28;20047;-74
2022/07/25 06:20:11;;;;;;;18.52;11.40;;;22.80;99.90;;;;;;5112652;28;20036;-74
2022/07/25 06:22:37;;;;;;;17.27;11.38;;;21.50;99.90;;;;;;5112718;28;20058;-74
2022/07/25 06:25:03;;;;;;;17.80;11.38;;;22.30;97.30;;;;;;5112634;28;20036;-74
2022/07/25 06:27:29;;;;;;;16.48;10.70;;;22.70;99.90;;;;;;5096065;28;20376;-74
2022/07/25 06:29:55;;;;;;;18.67;10.77;;;;;;;;;;5116091;28;20045;-73
2022/07/25 06:32:21;;;;;;;24.77;11.27;;;22.70;99.90;;;;;;5112874;28;20043;-74
2022/07/25 06:34:47;;;;;;;16.77;11.73;;;;;;;;;;5112538;28;20483;-74
2022/07/25 06:37:13;;;;;;;16.45;11.27;;;22.70;99.90;;;;;;5095642;28;20075;-74
2022/07/25 06:39:39;;;;;;;16.63;9.98;;;21.40;96.50;;;;;;5095552;28;20155;-74
2022/07/25 06:42:05;;;;;;;14.23;9.95;;;;;;;;;;5112591;28;20051;-74
2022/07/25 06:44:34;;;;;;;14.70;9.25;;;22.60;94.50;;;;;;5112323;28;20480;-74
2022/07/25 06:47:02;;;;;;;11.02;8.13;;;23.10;99.40;;;;;;5095369;28;20472;-74
2022/07/25 06:49:27;;;;;;;17.45;7.70;;;22.70;98.80;;;;;;5112330;28;20052;-74
2022/07/25 06:51:53;;;;;;;10.02;7.10;;;23.20;98.80;;;;;;5112502;28;20047;-74
2022/07/25 06:54:19;;;;;;;12.05;6.78;;;22.00;98.30;;;;;;5095350;28;20596;-74
2022/07/25 06:56:45;;;;;;;10.90;5.57;;;23.20;98.40;;;;;;5078338;28;20051;-74
2022/07/25 06:59:11;;;;;;;10.98;5.90;;;23.60;97.90;;;;;;5078343;28;20047;-74
2022/07/25 07:01:37;;;;;;;9.98;4.07;;;23.10;97.50;;;;;;5112424;28;20101;-74
2022/07/25 07:04:03;;;;;;;8.10;4.40;;;23.20;92.80;;;;;;5112555;28;20494;-74
2022/07/25 07:06:29;;;;;;;9.32;4.15;;;23.60;96.50;;;;;;5095220;28;20039;-74
2022/07/25 07:08:55;;;;;;;7.95;3.95;;;23.70;96.30;;;;;;5112203;28;20035;-74
2022/07/25 07:11:21;;;;;;;7.63;3.88;;;;;;;;;;5112135;28;20066;-74
2022/07/25 07:13:47;;;;;;;5.35;3.15;;;22.40;96.10;;;;;;5112149;28;20078;-74
2022/07/25 07:16:13;;;;;;;6.10;2.90;;;;;;;;;;5112080;28;20070;-74
2022/07/25 07:18:39;;;;;;;8.23;3.30;;;22.30;96.10;;;;;;5112233;28;20079;-74
2022/07/25 07:21:05;;;;;;;6.43;3.70;;;22.90;96.50;;;;;;5095128;28;20510;-74
2022/07/25 07:23:31;;;;;;;6.95;3.80;;;23.50;96.50;;;;;;5095122;28;20502;-74
2022/07/25 07:25:57;;;;;;;12.63;4.47;;;;;;;;;;5115839;28;20039;-74
2022/07/25 07:28:23;;;;;;;7.85;3.88;;;;;;;;;;5115962;28;20047;-74
2022/07/25 07:30:49;;;;;;;7.72;3.60;;;;;;;;;;5115976;28;20039;-74
2022/07/25 07:33:15;;;;;;;10.75;3.78;;;21.50;96.40;;;;;;5098676;28;20123;-74
2022/07/25 07:35:43;;;;;;;7.80;4.00;;;22.80;93.20;;;;;;5115567;28;20169;-74
2022/07/25 07:38:08;;;;;;;11.20;3.20;;;23.20;97.30;;;;;;5115847;28;20031;-74
2022/07/25 07:40:34;;;;;;;6.55;3.50;;;21.70;97.00;;;;;;5115461;28;20365;-74
2022/07/25 07:43:02;;;;;;;6.60;3.30;;;;;;;;;;5098670;28;20043;-74
2022/07/25 07:45:28;;;;;;;6.53;2.95;;;21.40;97.20;;;;;;5115559;28;20047;-74
2022/07/25 07:47:55;;;;;;;5.15;2.45;;;22.50;94.00;;;;;;5115497;28;20039;-74
2022/07/25 07:50:26;;;;;;;6.88;2.80;;;22.30;97.60;;;;;;5081747;28;20039;-74
2022/07/25 07:52:54;;;;;;;5.97;3.23;;;22.00;93.90;;;;;;5115722;28;20039;-74
2022/07/25 07:58:06;;;;;;;7.95;2.83;;;21.40;97.70;;;;;;5101043;28;20052;-74
2022/07/25 08:00:35;;;;;;;7.35;3.25;;;21.90;94.40;;;;;;5098174;28;20044;-74
2022/07/25 08:03:01;;;;;;;9.75;4.00;;;22.60;96.30;;;;;;5098422;28;20503;-74
2022/07/25 08:05:30;;;;;;;7.43;3.28;;;21.70;98.00;;;;;;5115549;28;20057;-74
2022/07/25 08:07:56;;;;;;;8.18;3.00;;;21.60;94.30;;;;;;5115086;28;20039;-74
2022/07/25 08:10:31;;;;;;;9.68;3.45;;;21.50;98.10;;;;;;5098073;28;20563;-75
2022/07/25 08:12:58;;;;;;;9.23;3.00;;;21.70;94.50;;;;;;5114992;28;20047;-74
2022/07/25 08:15:24;;;;;;;5.82;3.53;;;22.80;98.70;;;;;;5115128;28;20039;-74
2022/07/25 08:17:50;;;;;;;8.82;3.72;;;21.00;98.30;;;;;;5097890;28;20100;-74
2022/07/25 08:20:23;;;;;;;10.85;3.75;;;22.40;98.70;;;;;;5114870;28;20054;-74
2022/07/25 08:22:49;;;;;;;5.68;2.80;;;22.00;94.50;;;;;;5115213;28;20073;-74
2022/07/25 08:25:17;;;;;;;9.63;3.40;;;22.10;95.10;;;;;;5115162;28;20433;-74
2022/07/25 08:27:44;;;;;;;5.93;2.95;;;23.00;99.00;;;;;;5114851;28;20046;-75
2022/07/25 08:30:12;;;;;;;7.28;2.92;;;21.00;98.40;;;;;;5114567;28;20148;-75
2022/07/25 08:32:51;;;;;;;12.00;3.03;;;21.30;98.40;;;;;;5114607;28;20075;-75
2022/07/25 08:35:21;;;;;;;7.82;3.28;;;22.00;94.70;;;;;;5114183;28;20039;-75
2022/07/25 08:37:47;;;;;;;7.38;2.60;;;22.90;98.80;;;;;;5114374;28;20428;-75
2022/07/25 08:40:15;;;;;;;7.72;2.78;;;22.40;98.90;;;;;;5097587;28;20035;-75
2022/07/25 08:42:41;;;;;;;10.38;2.97;;;23.30;98.60;;;;;;5114738;28;20192;-74
2022/07/25 08:45:09;;;;;;;7.43;2.83;;;23.10;98.50;;;;;;5097402;28;20046;-74
2022/07/25 08:47:36;;;;;;;10.13;2.53;;;22.00;98.20;;;;;;5114525;28;20484;-74
2022/07/25 08:50:10;;;;;;;6.50;2.28;;;23.20;98.70;;;;;;5114558;28;20043;-74
2022/07/25 08:52:36;;;;;;;6.10;2.80;;;22.60;98.40;;;;;;5114338;28;20051;-74
2022/07/25 08:55:08;;;;;;;7.95;2.95;;;21.90;98.20;;;;;;5114512;28;20079;-74
2022/07/25 08:57:36;;;;;;;9.90;3.17;;;22.50;94.50;;;;;;5114174;28;20064;-74
2022/07/25 09:00:05;;;;;;;8.00;3.08;;;21.70;98.10;;;;;;5114120;28;20102;-74
2022/07/25 09:02:31;;;;;;;9.57;3.08;;;21.90;98.30;;;;;;5114320;28;20039;-74
2022/07/25 09:04:58;;;;;;;10.60;2.80;;;23.10;98.60;;;;;;5114295;28;20574;-74
2022/07/25 09:07:38;;;;;;;7.13;2.90;;;22.80;98.70;;;;;;5113969;28;20043;-74
2022/07/25 09:10:15;;;;;;;10.65;3.78;;;22.00;98.90;;;;;;5114375;28;20039;-74
2022/07/25 09:12:50;;;;;;;11.00;2.85;;;21.40;99.10;;;;;;5113835;28;20474;-75
2022/07/25 09:15:34;;;;;;;7.15;3.00;;;22.80;99.80;;;;;;5113699;28;20050;-75
2022/07/25 09:18:06;;;;;;;11.68;3.00;;;21.80;95.10;;;;;;5113481;28;20104;-75
2022/07/25 09:20:39;;;;;;;9.25;3.15;;;22.20;99.90;;;;;;5113518;28;20560;-75
2022/07/25 09:23:05;;;;;;;10.05;3.17;;;22.20;98.10;;;;;;5113608;28;20130;-75
2022/07/25 09:25:31;;;;;;;8.10;3.22;;;;;;;;;;5113506;28;20119;-75
2022/07/25 09:28:15;;;;;;;11.82;2.97;;;22.30;99.90;;;;;;5113559;28;20395;-75
2022/07/25 09:30:58;;;;;;;8.30;3.17;;;20.80;99.90;;;;;;5113721;28;20426;-75
2022/07/25 09:33:26;;;;;;;14.93;3.60;;;22.70;99.90;;;;;;5096886;28;20422;-75
2022/07/25 09:35:53;;;;;;;11.00;3.20;;;22.40;99.90;;;;;;5097109;28;20100;-75
2022/07/25 09:38:20;;;;;;;14.00;3.70;;;22.60;99.90;;;;;;5113288;28;20491;-75
2022/07/25 09:41:00;;;;;;;12.63;3.45;;;21.70;96.80;;;;;;5113477;28;20051;-75
2022/07/25 09:43:37;;;;;;;12.30;3.80;;;22.40;99.90;;;;;;5113282;28;20103;-74
2022/07/25 09:46:03;;;;;;;14.15;3.38;;;22.70;99.90;;;;;;5113303;28;20055;-74
2022/07/25 09:48:29;;;;;;;14.18;3.50;;;21.70;98.30;;;;;;5113090;28;20118;-74
2022/07/25 09:50:56;;;;;;;10.00;3.10;;;21.80;99.90;;;;;;5079408;28;20074;-74
2022/07/25 09:53:22;;;;;;;9.95;3.03;;;21.90;98.70;;;;;;5079482;28;20048;-74
2022/07/25 09:55:48;;;;;;;9.20;3.55;;;;;;;;;;5113022;28;20057;-75
2022/07/25 09:58:13;;;;;;;9.07;3.10;;;23.30;99.90;;;;;;5095851;28;20446;-74
2022/07/25 10:00:40;;;;;;;11.30;3.30;;;22.50;96.80;;;;;;5112766;28;20047;-74
2022/07/25 10:03:37;;;;;;;12.52;3.10;;;21.70;99.90;;;;;;5112889;28;20096;-74
2022/07/25 10:06:05;;;;;;;15.07;3.55;;;22.20;99.90;;;;;;5112911;28;20043;-74
2022/07/25 10:08:38;;;;;;;15.05;3.58;;;22.40;99.30;;;;;;5112842;28;20039;-74
2022/07/25 10:11:05;;;;;;;17.70;3.83;;;22.50;99.60;;;;;;5095741;28;20067;-74
2022/07/25 10:13:34;;;;;;;13.85;3.75;;;23.80;98.50;;;;;;5113023;28;20122;-74
2022/07/25 10:16:00;;;;;;;10.13;3.55;;;23.50;99.40;;;;;;5112748;28;20035;-74
2022/07/25 10:18:28;;;;;;;16.27;4.22;;;22.70;99.00;;;;;;5112582;28;20035;-74
2022/07/25 10:21:07;;;;;;;14.68;3.40;;;23.40;95.30;;;;;;5112592;28;20035;-74
2022/07/25 10:23:33;;;;;;;9.38;3.10;;;23.90;98.90;;;;;;5112654;28;20032;-74
2022/07/25 10:25:59;;;;;;;9.52;3.30;;;23.90;99.30;;;;;;5095636;28;20092;-73
2022/07/25 10:28:35;;;;;;;15.57;3.65;;;23.10;98.80;;;;;;5112608;28;20070;-73
2022/07/25 10:31:01;;;;;;;12.80;3.33;;;;;;;;;;5095218;28;20041;-73
2022/07/25 10:33:26;;;;;;;11.15;3.45;;;23.10;98.80;;;;;;5112441;28;20046;-73
2022/07/25 10:35:53;;;;;;;15.10;3.00;;;;;;;;;;5095337;28;20047;-73
2022/07/25 10:38:27;;;;;;;11.07;2.95;;;22.90;98.60;;;;;;5095529;28;20153;-73
2022/07/25 10:40:54;;;;;;;16.15;3.25;;;23.40;98.80;;;;;;5095798;28;20130;-73
2022/07/25 10:43:21;;;;;;;12.38;3.53;;;23.10;98.80;;;;;;5095810;28;20047;-73
2022/07/25 10:45:52;;;;;;;15.73;3.17;;;22.20;98.60;;;;;;5095960;28;20135;-74
2022/07/25 10:48:22;;;;;;;11.65;3.22;;;23.40;95.60;;;;;;5095502;28;20153;-74
2022/07/25 10:51:07;;;;;;;15.55;4.15;;;23.30;98.80;;;;;;5112464;28;20043;-74
2022/07/25 10:53:37;;;;;;;11.18;3.47;;;22.00;98.40;;;;;;5112554;28;20039;-73
2022/07/25 10:56:05;;;;;;;15.38;3.05;;;22.20;98.50;;;;;;5112410;28;20051;-73
2022/07/25 10:58:44;;;;;;;14.80;3.40;;;22.90;98.80;;;;;;5112044;28;20059;-73
2022/07/25 11:01:10;;;;;;;21.60;3.42;;;21.70;98.60;;;;;;5116507;28;20059;-73
2022/07/25 11:03:35;;;;;;;12.80;3.30;;;23.20;98.00;;;;;;5116322;28;20035;-73
2022/07/25 11:06:01;;;;;;;12.23;4.05;;;23.20;98.70;;;;;;5116216;28;20427;-73
2022/07/25 11:08:34;;;;;;;12.45;3.20;;;22.50;98.50;;;;;;5116520;28;20078;-73
2022/07/25 11:11:01;;;;;;;10.10;3.00;;;22.80;98.50;;;;;;5116269;28;20114;-73
2022/07/25 11:13:27;;;;;;;18.90;3.95;;;23.00;98.40;;;;;;5099543;28;20085;-73
2022/07/25 11:15:57;;;;;;;8.07;2.78;;;22.30;94.80;;;;;;5082525;28;20495;-73
2022/07/25 11:18:37;;;;;;;9.65;2.90;;;21.80;98.30;;;;;;5099149;28;20491;-73
2022/07/25 11:21:06;;;;;;;10.90;3.22;;;22.50;98.10;;;;;;5099704;28;20104;-74
2022/07/25 11:23:33;;;;;;;11.88;3.42;;;23.40;98.00;;;;;;5115946;28;20035;-73
2022/07/25 11:26:11;;;;;;;10.07;2.90;;;23.00;92.70;;;;;;5116027;28;20479;-73
2022/07/25 11:28:48;;;;;;;11.90;2.92;;;22.80;97.70;;;;;;5116257;28;20054;-73
2022/07/25 11:31:15;;;;;;;13.23;2.88;;;22.70;97.50;;;;;;5098921;28;20043;-73
2022/07/25 11:33:45;;;;;;;13.82;2.85;;;22.00;97.00;;;;;;5115958;28;20414;-73
2022/07/25 11:36:11;;;;;;;10.40;2.90;;;;;;;;;;5115691;28;20044;-74
2022/07/25 11:38:39;;;;;;;11.45;2.47;;;23.00;96.90;;;;;;5115565;28;20399;-74
2022/07/25 11:41:05;;;;;;;11.35;3.33;;;22.90;92.60;;;;;;5098935;28;20391;-74
2022/07/25 11:43:31;;;;;;;6.60;2.67;;;22.70;96.90;;;;;;5115616;28;20040;-73
2022/07/25 11:46:07;;;;;;;13.52;3.00;;;22.40;96.30;;;;;;5115837;28;20049;-73
2022/07/25 11:48:39;;;;;;;14.95;3.70;;;23.20;96.30;;;;;;5115494;28;20043;-73
2022/07/25 11:51:08;;;;;;;;;;;23.20;92.90;;;;;;5116206;28;20441;-73
2022/07/25 11:53:42;;;;;;;8.57;3.20;;;23.10;96.30;;;;;;5115433;28;19931;-74
2022/07/25 11:56:20;;;;;;;10.55;3.03;;;22.90;96.50;;;;;;5098263;28;20036;-73
2022/07/25 11:59:00;;;;;;;10.32;3.22;;;22.80;91.60;;;;;;5114993;28;20062;-73
2022/07/25 12:01:37;;;;;;;12.68;3.03;;;22.40;96.30;;;;;;5115611;28;20036;-73
2022/07/25 12:04:13;;;;;;;10.57;2.88;;;21.90;96.10;;;;;;5115510;28;20101;-73
2022/07/25 12:06:39;;;;;;;9.57;3.72;;;23.50;96.40;;;;;;5115263;28;20496;-73
2022/07/25 12:09:14;;;;;;;7.30;2.72;;;23.10;91.20;;;;;;5098053;28;20044;-74
2022/07/25 12:11:40;;;;;;;10.38;3.05;;;23.40;96.30;;;;;;5113695;28;20377;-73
2022/07/25 12:14:06;;;;;;;13.55;2.97;;;23.20;96.00;;;;;;5098338;28;20046;-73
2022/07/25 12:16:32;;;;;;;15.93;3.50;;;22.70;96.00;;;;;;5115391;28;20050;-73
2022/07/25 12:18:58;;;;;;;12.32;3.30;;;22.80;96.00;;;;;;5114873;28;20039;-73
2022/07/25 12:21:25;;;;;;;12.25;2.85;;;23.50;96.30;;;;;;5114910;28;20035;-73
2022/07/25 12:23:51;;;;;;;17.35;3.42;;;23.40;96.30;;;;;;5115016;28;20177;-73
2022/07/25 12:26:17;;;;;;;16.20;3.65;;;23.80;96.30;;;;;;5080958;28;20534;-73
2022/07/25 12:28:43;;;;;;;10.43;2.97;;;;;;;;;;5114914;28;20118;-73
2022/07/25 12:31:09;;;;;;;13.68;3.35;;;23.50;96.00;;;;;;5114884;28;20392;-73
2022/07/25 12:33:34;;;;;;;11.40;2.95;;;24.00;96.10;;;;;;5097572;28;20036;-73
2022/07/25 12:36:01;;;;;;;11.43;3.10;;;23.00;95.40;;;;;;5097878;28;20031;-74
2022/07/25 12:38:27;;;;;;;13.30;2.97;;;23.70;95.00;;;;;;5097892;28;20097;-73
2022/07/25 12:40:53;;;;;;;10.85;2.80;;;;;;;;;;5098158;28;20474;-73
2022/07/25 12:43:19;;;;;;;15.32;3.83;;;24.30;95.30;;;;;;5114580;28;20040;-73
2022/07/25 12:45:45;;;;;;;13.82;4.03;;;22.70;94.70;;;;;;5114523;28;20118;-74
2022/07/25 12:48:14;;;;;;;18.10;3.78;;;23.20;94.90;;;;;;5114371;28;20043;-74
2022/07/25 12:50:41;;;;;;;14.68;3.90;;;23.90;95.10;;;;;;5097294;28;20040;-73
2022/07/25 12:53:07;;;;;;;13.38;3.92;;;23.70;91.70;;;;;;5114319;28;20088;-74
2022/07/25 12:55:34;;;;;;;19.27;4.72;;;;;;;;;;5097216;28;20095;-74
2022/07/25 12:57:59;;;;;;;12.98;3.80;;;23.60;95.40;;;;;;5097147;28;20449;-74
2022/07/25 13:00:26;;;;;;;11.23;3.63;;;23.70;95.40;;;;;;5114165;28;20039;-74